Time;durP1;ratioP1;P1;durP2;ratioP2;P2;SDS_P1;SDS_P2;PMS_P1;PMS_P2;Temp;Humidity;BMP_temperature;BMP_pressure;BME280_temperature;BME280_humidity;BME280_pressure;Samples;Min_cycle;Max_cycle;Signal;HPM_P1;HPM_P2
2023/02/20 00:00:26;;;;;;;4.63;4.33;;;9.90;99.90;;;;;;4992820;28;20512;-68
2023/02/20 00:02:52;;;;;;;5.00;4.70;;;9.90;99.90;;;;;;4993117;28;20273;-68
2023/02/20 00:05:18;;;;;;;5.00;4.60;;;9.90;99.90;;;;;;4992751;28;20486;-68
2023/02/20 00:07:44;;;;;;;5.40;4.60;;;9.90;99.90;;;;;;4976196;28;20180;-68
2023/02/20 00:10:10;;;;;;;5.13;4.73;;;9.90;99.90;;;;;;4992746;28;20515;-68
2023/02/20 00:12:36;;;;;;;5.10;4.80;;;9.90;99.90;;;;;;4993325;28;20310;-68
2023/02/20 00:15:02;;;;;;;6.23;5.50;;;9.90;99.90;;;;;;4993206;28;20422;-68
2023/02/20 00:17:28;;;;;;;4.33;4.13;;;9.80;99.90;;;;;;4992624;28;20416;-68
2023/02/20 00:19:54;;;;;;;5.80;5.40;;;9.80;99.90;;;;;;4993481;28;20417;-68
2023/02/20 00:22:23;;;;;;;5.80;5.30;;;9.80;99.90;;;;;;4992566;28;20187;-68
2023/02/20 00:24:50;;;;;;;6.57;5.97;;;9.80;99.90;;;;;;4993092;28;20455;-68
2023/02/20 00:27:16;;;;;;;6.30;5.80;;;9.80;99.90;;;;;;4992564;28;20507;-68
2023/02/20 00:29:44;;;;;;;6.93;6.30;;;9.80;99.90;;;;;;4993068;28;20423;-68
2023/02/20 00:32:10;;;;;;;7.47;6.77;;;9.80;99.90;;;;;;4992564;28;20418;-68
2023/02/20 00:34:35;;;;;;;9.17;6.80;;;9.80;99.90;;;;;;4992798;28;20777;-68
2023/02/20 00:37:01;;;;;;;7.07;6.50;;;9.80;99.90;;;;;;4993266;28;20412;-68
2023/02/20 00:39:26;;;;;;;7.57;6.87;;;9.80;99.90;;;;;;4992452;28;20184;-68
2023/02/20 00:41:54;;;;;;;9.03;7.90;;;9.80;99.90;;;;;;4993252;28;20188;-68
2023/02/20 00:44:20;;;;;;;9.27;8.23;;;9.80;99.90;;;;;;4992105;28;20600;-68
2023/02/20 00:46:46;;;;;;;8.47;7.60;;;9.80;99.90;;;;;;4975763;28;20517;-68
2023/02/20 00:49:11;;;;;;;8.87;7.73;;;9.80;99.90;;;;;;4992394;28;20188;-68
2023/02/20 00:51:37;;;;;;;9.07;7.83;;;9.80;99.90;;;;;;4993148;28;20180;-68
2023/02/20 00:54:03;;;;;;;9.20;8.07;;;9.80;99.90;;;;;;4995637;28;20690;-68
2023/02/20 00:56:29;;;;;;;9.13;7.70;;;9.80;99.90;;;;;;4996334;28;20526;-68
2023/02/20 00:58:54;;;;;;;12.20;8.67;;;9.80;99.90;;;;;;4996627;28;20409;-68
2023/02/20 01:01:21;;;;;;;9.30;8.37;;;9.80;99.90;;;;;;4996070;28;20603;-68
2023/02/20 01:03:46;;;;;;;9.80;8.80;;;9.80;99.90;;;;;;4996690;28;20220;-68
2023/02/20 01:06:12;;;;;;;8.80;8.00;;;9.90;99.90;;;;;;4995949;28;20817;-68
2023/02/20 01:08:38;;;;;;;10.90;9.17;;;9.90;99.90;;;;;;4996672;28;20212;-68
2023/02/20 01:11:06;;;;;;;10.93;8.83;;;9.90;99.90;;;;;;4996012;28;20219;-68
2023/02/20 01:13:32;;;;;;;10.07;8.60;;;9.90;99.90;;;;;;4995861;28;20210;-68
2023/02/20 01:15:57;;;;;;;9.43;8.43;;;9.90;99.90;;;;;;4996343;28;20788;-68
2023/02/20 01:18:23;;;;;;;12.70;9.10;;;9.90;99.90;;;;;;4995681;28;20178;-68
2023/02/20 01:20:49;;;;;;;9.83;8.83;;;10.00;99.90;;;;;;4996328;28;20180;-68
2023/02/20 01:23:14;;;;;;;11.70;9.90;;;10.10;99.90;;;;;;4995576;28;20207;-68
2023/02/20 01:25:40;;;;;;;17.73;10.27;;;10.00;99.90;;;;;;4996163;28;20183;-68
2023/02/20 01:28:06;;;;;;;12.03;9.93;;;10.00;99.90;;;;;;4994975;28;20184;-68
2023/02/20 01:30:31;;;;;;;13.43;10.93;;;10.00;99.90;;;;;;4995488;28;20196;-68
2023/02/20 01:32:57;;;;;;;14.70;11.07;;;10.00;99.90;;;;;;4996039;28;20642;-68
2023/02/20 01:35:23;;;;;;;12.93;11.33;;;10.00;99.90;;;;;;4995368;28;20168;-68
2023/02/20 01:37:49;;;;;;;14.13;11.07;;;10.00;99.90;;;;;;4996104;28;20515;-68
2023/02/20 01:40:20;;;;;;;14.67;11.03;;;10.00;99.90;;;;;;4995246;28;20179;-68
2023/02/20 01:42:46;;;;;;;13.00;10.17;;;10.00;99.90;;;;;;4996132;28;20424;-68
2023/02/20 01:45:30;;;;;;;14.83;11.10;;;10.00;99.90;;;;;;4995177;28;20412;-68
2023/02/20 01:47:57;;;;;;;15.30;10.57;;;10.10;99.90;;;;;;4995840;28;20420;-68
2023/02/20 01:50:31;;;;;;;13.00;11.60;;;10.00;99.90;;;;;;4977777;28;20542;-68
2023/02/20 01:53:01;;;;;;;16.10;11.20;;;10.10;99.90;;;;;;4978361;28;20417;-68
2023/02/20 01:55:37;;;;;;;13.90;11.97;;;10.00;99.90;;;;;;4995094;28;20403;-68
2023/02/20 01:58:09;;;;;;;12.33;10.53;;;10.10;99.90;;;;;;4995661;28;20483;-68
2023/02/20 02:00:35;;;;;;;12.90;10.50;;;10.10;99.90;;;;;;4994904;28;20781;-68
2023/02/20 02:03:10;;;;;;;14.10;11.10;;;10.10;99.90;;;;;;4995382;28;20413;-68
2023/02/20 02:05:39;;;;;;;12.73;10.00;;;10.10;99.90;;;;;;4993973;28;20417;-68
2023/02/20 02:08:07;;;;;;;13.00;9.80;;;10.10;99.90;;;;;;4995440;28;20431;-68
2023/02/20 02:10:51;;;;;;;11.97;9.07;;;10.10;99.90;;;;;;4994680;28;20412;-68
2023/02/20 02:13:17;;;;;;;11.47;9.37;;;10.10;99.90;;;;;;4994779;28;20480;-68
2023/02/20 02:15:42;;;;;;;12.27;10.00;;;10.10;99.90;;;;;;4995229;28;20431;-68
2023/02/20 02:18:40;;;;;;;11.33;10.20;;;10.10;99.90;;;;;;4995207;28;20176;-68
2023/02/20 02:21:25;;;;;;;12.33;10.80;;;10.10;99.90;;;;;;4995341;28;20619;-68
2023/02/20 02:24:11;;;;;;;12.97;10.40;;;10.10;99.90;;;;;;4994772;28;20956;-68
2023/02/20 02:26:48;;;;;;;11.60;10.20;;;10.10;99.90;;;;;;4994536;28;20398;-68
2023/02/20 02:29:26;;;;;;;12.07;9.97;;;10.10;99.90;;;;;;4994422;28;20406;-68
2023/02/20 02:32:06;;;;;;;13.50;10.00;;;10.10;99.90;;;;;;4995043;28;20393;-68
2023/02/20 02:34:49;;;;;;;11.30;9.70;;;10.10;99.90;;;;;;4994309;28;20409;-68
2023/02/20 02:37:30;;;;;;;11.60;10.13;;;10.20;99.90;;;;;;4994337;28;20846;-68
2023/02/20 02:40:00;;;;;;;11.60;9.70;;;10.10;99.90;;;;;;4994960;28;20839;-68
2023/02/20 02:42:38;;;;;;;10.80;9.43;;;10.10;99.90;;;;;;4993804;28;20426;-68
2023/02/20 02:45:14;;;;;;;15.43;10.00;;;10.20;99.90;;;;;;4994706;28;20465;-68
2023/02/20 02:48:14;;;;;;;11.07;9.97;;;10.10;99.90;;;;;;4994782;28;20421;-68
2023/02/20 02:50:43;;;;;;;14.90;10.17;;;10.10;99.90;;;;;;4969610;28;20429;-68
2023/02/20 02:53:10;;;;;;;11.30;9.70;;;10.10;99.90;;;;;;4994573;28;20408;-68
2023/02/20 02:55:36;;;;;;;12.77;11.17;;;10.10;99.90;;;;;;4993918;28;20431;-68
2023/02/20 02:58:04;;;;;;;10.80;9.30;;;10.10;99.90;;;;;;4994591;28;20429;-68
2023/02/20 03:00:44;;;;;;;11.90;9.60;;;10.10;99.90;;;;;;4993903;28;20444;-68
2023/02/20 03:03:15;;;;;;;10.47;9.13;;;10.10;99.90;;;;;;4977057;28;20949;-68
2023/02/20 03:05:57;;;;;;;11.03;9.13;;;10.10;99.90;;;;;;4994435;28;20408;-68
2023/02/20 03:08:30;;;;;;;14.10;9.67;;;10.10;99.90;;;;;;4993704;28;20448;-68
2023/02/20 03:11:06;;;;;;;13.47;9.87;;;10.10;99.90;;;;;;4993973;28;20421;-68
2023/02/20 03:16:39;;;;;;;11.70;10.30;;;10.00;99.90;;;;;;4993292;28;20416;-68
2023/02/20 03:19:12;;;;;;;13.33;9.90;;;9.90;99.90;;;;;;4994133;28;20399;-68
2023/02/20 03:21:45;;;;;;;10.53;9.10;;;9.90;99.90;;;;;;4993444;28;20416;-68
2023/02/20 03:24:13;;;;;;;11.23;9.30;;;9.90;99.90;;;;;;4993948;28;20463;-68
2023/02/20 03:26:41;;;;;;;13.50;9.20;;;9.90;99.90;;;;;;4993356;28;20416;-68
2023/02/20 03:29:17;;;;;;;12.20;8.87;;;9.90;99.90;;;;;;4993808;28;20416;-68
2023/02/20 03:43:23;;;;;;;9.97;8.43;;;9.80;99.90;;;;;;4993759;28;20452;-68
2023/02/20 03:45:51;;;;;;;10.60;9.20;;;9.70;99.90;;;;;;4993404;28;20490;-68
2023/02/20 03:48:41;;;;;;;10.97;9.17;;;9.70;99.90;;;;;;4993371;28;20424;-68
2023/02/20 03:51:11;;;;;;;10.33;9.07;;;9.80;99.90;;;;;;4993592;28;20443;-68
2023/02/20 03:53:39;;;;;;;11.97;8.57;;;9.80;99.90;;;;;;4992630;28;20420;-68
2023/02/20 03:56:11;;;;;;;11.70;9.30;;;9.80;99.90;;;;;;4993455;28;20458;-68
2023/02/20 03:58:41;;;;;;;9.93;8.80;;;9.90;99.90;;;;;;4992894;28;20518;-68
2023/02/20 04:01:09;;;;;;;13.23;9.77;;;9.80;99.90;;;;;;4993538;28;20401;-68
2023/02/20 04:03:39;;;;;;;10.23;9.00;;;9.80;99.90;;;;;;4992703;28;20462;-68
2023/02/20 04:06:07;;;;;;;12.53;9.10;;;9.90;99.90;;;;;;4993595;28;20462;-68
2023/02/20 04:08:39;;;;;;;14.17;10.20;;;9.90;99.90;;;;;;4992723;28;20419;-68
2023/02/20 04:11:14;;;;;;;13.50;9.43;;;9.80;99.90;;;;;;4993120;28;20485;-68
2023/02/20 04:13:40;;;;;;;11.83;9.20;;;9.80;99.90;;;;;;4992755;28;20712;-68
2023/02/20 04:16:07;;;;;;;9.80;8.80;;;10.00;99.90;;;;;;4993495;28;20562;-68
2023/02/20 04:18:34;;;;;;;13.20;9.57;;;9.90;99.90;;;;;;4992587;28;20438;-68
2023/02/20 04:21:03;;;;;;;12.47;9.43;;;9.80;99.90;;;;;;4993355;28;20531;-68
2023/02/20 04:23:33;;;;;;;9.80;8.80;;;9.80;99.90;;;;;;4992536;28;20478;-68
2023/02/20 04:26:04;;;;;;;11.60;9.27;;;9.80;99.90;;;;;;4993341;28;20505;-68
2023/02/20 04:28:30;;;;;;;12.10;9.40;;;9.80;99.90;;;;;;4994518;28;20398;-68
2023/02/20 04:30:56;;;;;;;10.97;8.63;;;9.80;99.90;;;;;;4997479;28;20418;-68
2023/02/20 04:33:22;;;;;;;12.57;9.03;;;9.80;99.90;;;;;;4996259;28;20412;-68
2023/02/20 04:35:48;;;;;;;14.87;9.80;;;9.80;99.90;;;;;;4997134;28;20172;-68
2023/02/20 04:38:14;;;;;;;10.10;8.63;;;9.80;99.90;;;;;;4996793;28;20941;-68
2023/02/20 04:40:39;;;;;;;9.27;8.27;;;9.90;99.90;;;;;;4996320;28;20185;-68
2023/02/20 04:43:05;;;;;;;10.80;8.97;;;9.90;99.90;;;;;;4996999;28;20248;-68
2023/02/20 04:45:31;;;;;;;10.80;8.63;;;9.80;99.90;;;;;;4996206;28;20178;-68
2023/02/20 04:47:57;;;;;;;14.40;9.30;;;9.70;99.90;;;;;;4996522;28;20210;-68
2023/02/20 04:50:31;;;;;;;11.90;9.00;;;9.70;99.90;;;;;;4996321;28;20415;-68
2023/02/20 04:52:58;;;;;;;10.97;7.97;;;9.80;99.90;;;;;;4996844;28;20502;-68
2023/02/20 04:55:24;;;;;;;9.73;8.27;;;9.80;99.90;;;;;;4996153;28;20411;-68
2023/02/20 04:57:52;;;;;;;9.63;7.80;;;9.80;99.90;;;;;;4996626;28;20465;-68
2023/02/20 05:00:19;;;;;;;9.20;7.60;;;9.80;99.90;;;;;;4979339;28;20828;-68
2023/02/20 05:02:45;;;;;;;9.97;7.13;;;9.70;99.90;;;;;;4996023;28;20407;-68
2023/02/20 05:05:18;;;;;;;15.20;9.23;;;9.60;99.90;;;;;;4996494;28;20929;-68
2023/02/20 05:07:44;;;;;;;12.37;8.53;;;9.70;99.90;;;;;;4996223;28;20522;-68
2023/02/20 05:10:17;;;;;;;10.43;7.37;;;9.70;99.90;;;;;;4996527;28;20987;-68
2023/02/20 05:12:42;;;;;;;8.97;7.53;;;9.80;99.90;;;;;;4996173;28;20678;-68
2023/02/20 05:15:08;;;;;;;8.30;6.83;;;9.80;99.90;;;;;;4996417;28;20491;-68
2023/02/20 05:17:35;;;;;;;8.13;6.90;;;9.80;99.90;;;;;;4978281;28;20535;-68
2023/02/20 05:20:00;;;;;;;10.73;7.70;;;9.80;99.90;;;;;;4996605;28;20426;-68
2023/02/20 05:22:26;;;;;;;9.60;7.30;;;9.80;99.90;;;;;;4995743;28;20412;-68
2023/02/20 05:24:52;;;;;;;9.47;7.20;;;9.80;99.90;;;;;;4996101;28;20191;-68
2023/02/20 05:27:20;;;;;;;10.63;7.73;;;9.80;99.90;;;;;;4996146;28;20367;-68
2023/02/20 05:29:48;;;;;;;8.20;6.87;;;9.90;99.90;;;;;;4995614;28;20274;-68
2023/02/20 05:32:15;;;;;;;12.00;7.00;;;9.90;99.90;;;;;;4995983;28;20450;-68
2023/02/20 05:34:42;;;;;;;9.23;6.43;;;9.80;99.90;;;;;;4995115;28;20427;-68
2023/02/20 05:37:09;;;;;;;7.93;6.87;;;9.90;99.90;;;;;;4995954;28;20912;-68
2023/02/20 05:39:35;;;;;;;7.40;5.83;;;9.90;99.90;;;;;;4995208;28;20417;-68
2023/02/20 05:42:00;;;;;;;11.30;7.40;;;9.80;99.90;;;;;;4995499;28;20504;-68
2023/02/20 05:44:26;;;;;;;8.63;6.73;;;9.90;99.90;;;;;;4995185;28;20202;-68
2023/02/20 05:46:53;;;;;;;7.53;6.43;;;9.80;99.90;;;;;;4996054;28;20212;-68
2023/02/20 05:49:19;;;;;;;8.87;7.00;;;9.90;99.90;;;;;;4995847;28;20197;-68
2023/02/20 05:51:45;;;;;;;6.97;6.27;;;9.80;99.90;;;;;;4995123;28;20415;-68
2023/02/20 05:54:10;;;;;;;9.70;7.13;;;9.80;99.90;;;;;;4995667;28;20784;-68
2023/02/20 05:56:41;;;;;;;9.23;7.70;;;9.80;99.90;;;;;;4995055;28;20435;-68
2023/02/20 05:59:07;;;;;;;8.50;6.20;;;9.70;99.90;;;;;;4995635;28;20170;-68
2023/02/20 06:01:32;;;;;;;9.07;7.20;;;9.70;99.90;;;;;;4994912;28;20763;-68
2023/02/20 06:04:00;;;;;;;8.57;7.70;;;9.70;99.90;;;;;;4995404;28;20303;-68
2023/02/20 06:06:34;;;;;;;7.90;6.90;;;9.70;99.90;;;;;;4977933;28;20273;-68
2023/02/20 06:08:59;;;;;;;8.87;6.93;;;9.70;99.90;;;;;;4995270;28;20892;-68
2023/02/20 06:11:25;;;;;;;10.23;7.20;;;9.70;99.90;;;;;;4995024;28;20456;-68
2023/02/20 06:13:51;;;;;;;10.20;7.23;;;9.70;99.90;;;;;;4995336;28;20173;-68
2023/02/20 06:16:25;;;;;;;6.47;5.80;;;9.70;99.90;;;;;;4995289;28;20416;-68
2023/02/20 06:18:51;;;;;;;9.67;8.37;;;9.70;99.90;;;;;;4994547;28;20542;-68
2023/02/20 06:21:17;;;;;;;9.17;7.23;;;9.70;99.90;;;;;;4995490;28;20460;-68
2023/02/20 06:23:46;;;;;;;7.13;5.93;;;9.70;99.90;;;;;;4994447;28;20459;-68
2023/02/20 06:26:12;;;;;;;10.63;6.73;;;9.70;99.90;;;;;;4978205;28;20220;-68
2023/02/20 06:28:39;;;;;;;7.80;6.50;;;9.60;99.90;;;;;;4994453;28;20498;-68
2023/02/20 06:31:05;;;;;;;11.73;6.33;;;9.50;99.90;;;;;;4994996;28;20452;-68
2023/02/20 06:33:32;;;;;;;8.97;6.20;;;9.50;99.90;;;;;;4994321;28;20419;-68
2023/02/20 06:35:57;;;;;;;6.87;5.80;;;9.60;99.90;;;;;;4995115;28;20451;-68
2023/02/20 06:38:23;;;;;;;10.17;6.27;;;9.60;99.90;;;;;;4995044;28;20460;-68
2023/02/20 06:40:49;;;;;;;7.33;6.30;;;9.60;99.90;;;;;;4994082;28;20180;-68
2023/02/20 06:43:15;;;;;;;10.83;6.20;;;9.60;99.90;;;;;;4977213;28;20896;-68
2023/02/20 06:45:40;;;;;;;6.37;5.77;;;9.50;99.90;;;;;;4994390;28;20270;-68
2023/02/20 06:48:06;;;;;;;7.50;6.40;;;9.60;99.90;;;;;;4994645;28;20508;-68
2023/02/20 06:50:32;;;;;;;6.87;5.93;;;9.60;99.90;;;;;;4993690;28;20172;-68
2023/02/20 06:52:58;;;;;;;9.10;6.63;;;9.50;99.90;;;;;;4994619;28;20218;-68
2023/02/20 06:55:23;;;;;;;9.13;7.47;;;9.50;99.90;;;;;;4977104;28;20453;-68
2023/02/20 06:57:50;;;;;;;9.30;8.10;;;9.50;99.90;;;;;;4976555;28;20188;-68
2023/02/20 07:00:16;;;;;;;16.43;8.27;;;9.40;99.90;;;;;;4994322;28;20267;-68
2023/02/20 07:02:42;;;;;;;6.97;6.00;;;9.40;99.90;;;;;;4994044;28;20818;-68
2023/02/20 07:05:10;;;;;;;7.53;6.93;;;9.40;99.90;;;;;;4994227;28;20462;-69
2023/02/20 07:07:36;;;;;;;9.77;7.50;;;9.40;99.90;;;;;;4993941;28;20414;-69
2023/02/20 07:10:04;;;;;;;9.23;7.57;;;9.40;99.90;;;;;;4994227;28;20412;-69
2023/02/20 07:12:31;;;;;;;13.03;9.60;;;9.30;99.90;;;;;;4993488;28;20230;-69
2023/02/20 07:14:57;;;;;;;12.77;9.03;;;9.20;99.90;;;;;;4976765;28;20416;-69
2023/02/20 07:17:23;;;;;;;12.30;10.47;;;9.20;99.90;;;;;;4994101;28;20415;-69
2023/02/20 07:19:49;;;;;;;9.03;8.10;;;9.10;99.90;;;;;;4993164;28;20419;-69
2023/02/20 07:22:14;;;;;;;11.50;10.30;;;9.10;99.90;;;;;;4993965;28;20182;-69
2023/02/20 07:24:42;;;;;;;11.87;10.67;;;9.00;99.90;;;;;;4993033;28;20203;-69
2023/02/20 07:27:12;;;;;;;14.07;10.50;;;9.10;99.90;;;;;;4993881;28;20573;-69
2023/02/20 07:29:40;;;;;;;12.90;10.40;;;8.90;99.90;;;;;;4992956;28;20415;-69
2023/02/20 07:32:07;;;;;;;11.80;10.47;;;9.00;99.90;;;;;;4993626;28;20905;-69
2023/02/20 07:34:33;;;;;;;15.17;10.67;;;9.00;99.90;;;;;;4992547;28;20895;-69
2023/02/20 07:37:00;;;;;;;10.93;9.80;;;9.00;99.90;;;;;;4993940;28;20433;-69
2023/02/20 07:39:26;;;;;;;14.33;10.60;;;9.10;99.90;;;;;;4993663;28;20419;-69
2023/02/20 07:41:54;;;;;;;11.10;9.90;;;9.20;99.90;;;;;;4993179;28;20423;-69
2023/02/20 07:44:20;;;;;;;13.40;10.30;;;9.20;99.90;;;;;;4993627;28;20465;-69
2023/02/20 07:46:45;;;;;;;11.77;10.50;;;9.20;99.90;;;;;;4992992;28;20521;-69
2023/02/20 07:49:11;;;;;;;13.10;10.47;;;9.20;99.90;;;;;;4992242;28;20172;-69
2023/02/20 07:51:37;;;;;;;12.13;10.57;;;9.10;99.90;;;;;;4992923;28;20204;-69
2023/02/20 07:54:03;;;;;;;10.83;9.70;;;9.20;99.90;;;;;;4992404;28;20179;-69
2023/02/20 07:56:29;;;;;;;12.73;10.20;;;9.20;99.90;;;;;;4993582;28;20172;-69
2023/02/20 07:58:55;;;;;;;13.53;10.97;;;9.20;99.90;;;;;;4992818;28;20179;-69
2023/02/20 08:01:20;;;;;;;14.80;10.50;;;9.30;99.90;;;;;;4993340;28;20407;-69
2023/02/20 08:03:46;;;;;;;12.03;10.80;;;9.30;99.90;;;;;;4991643;28;20584;-69
2023/02/20 08:06:17;;;;;;;15.20;10.50;;;9.40;99.90;;;;;;4993452;28;20206;-69
2023/02/20 08:08:49;;;;;;;11.40;10.20;;;9.40;99.90;;;;;;4975566;28;20728;-69
2023/02/20 08:11:16;;;;;;;13.13;10.30;;;9.40;99.90;;;;;;4959602;28;20860;-69
2023/02/20 08:13:43;;;;;;;12.93;9.80;;;9.40;99.90;;;;;;4992871;28;20781;-69
2023/02/20 08:16:09;;;;;;;10.87;9.37;;;9.40;99.90;;;;;;4993123;28;20929;-69
2023/02/20 08:18:35;;;;;;;10.70;9.60;;;9.40;99.90;;;;;;4991478;28;20945;-69
2023/02/20 08:21:01;;;;;;;12.73;9.67;;;9.50;99.90;;;;;;4993273;28;20415;-69
2023/02/20 08:23:27;;;;;;;10.13;9.10;;;9.50;99.90;;;;;;4993193;28;20205;-69
2023/02/20 08:25:53;;;;;;;10.47;9.00;;;9.60;99.90;;;;;;4992592;28;20195;-69
2023/02/20 08:28:19;;;;;;;11.77;8.93;;;9.50;99.90;;;;;;4991653;28;20185;-69
2023/02/20 08:30:45;;;;;;;10.23;9.23;;;9.60;99.90;;;;;;4992283;28;20545;-69
2023/02/20 08:33:11;;;;;;;13.90;10.50;;;9.60;99.90;;;;;;4993197;28;20416;-69
2023/02/20 08:35:37;;;;;;;11.43;10.33;;;9.60;99.90;;;;;;4992204;28;20419;-69
2023/02/20 08:38:05;;;;;;;15.77;10.47;;;9.50;99.90;;;;;;4993062;28;20757;-69
2023/02/20 08:40:31;;;;;;;16.37;11.23;;;9.50;99.90;;;;;;4992878;28;20172;-69
2023/02/20 08:42:57;;;;;;;11.63;10.53;;;9.50;99.90;;;;;;4992429;28;20427;-69
2023/02/20 08:45:23;;;;;;;15.57;10.80;;;9.60;99.90;;;;;;4959323;28;20478;-69
2023/02/20 08:47:49;;;;;;;11.70;10.60;;;9.60;99.90;;;;;;4992390;28;20428;-69
2023/02/20 08:50:16;;;;;;;12.20;10.80;;;9.60;99.90;;;;;;4993061;28;20251;-69
2023/02/20 08:52:43;;;;;;;12.83;9.83;;;9.50;99.90;;;;;;4992379;28;20246;-69
2023/02/20 08:55:12;;;;;;;14.70;10.27;;;9.50;99.90;;;;;;4992943;28;20419;-69
2023/02/20 08:57:41;;;;;;;11.73;9.90;;;9.60;99.90;;;;;;4991980;28;20942;-69
2023/02/20 09:00:09;;;;;;;12.20;10.90;;;9.60;99.90;;;;;;4993081;28;20407;-69
2023/02/20 09:02:35;;;;;;;11.10;10.07;;;9.60;99.90;;;;;;4992902;28;20428;-69
2023/02/20 09:05:01;;;;;;;11.03;9.70;;;9.70;99.90;;;;;;4991914;28;20476;-69
2023/02/20 09:07:26;;;;;;;10.27;9.20;;;9.70;99.90;;;;;;4992830;28;20597;-69
2023/02/20 09:09:52;;;;;;;12.43;10.50;;;9.70;99.90;;;;;;4992216;28;20181;-69
2023/02/20 09:12:18;;;;;;;13.40;10.63;;;9.80;99.90;;;;;;4992850;28;20233;-68
2023/02/20 09:14:44;;;;;;;12.17;9.60;;;9.70;99.90;;;;;;4976910;28;20597;-68
2023/02/20 09:17:10;;;;;;;12.83;10.43;;;9.70;99.90;;;;;;4996364;28;20419;-68
2023/02/20 09:19:36;;;;;;;14.30;10.97;;;9.70;99.90;;;;;;4996293;28;20915;-68
2023/02/20 09:22:01;;;;;;;15.63;10.27;;;9.70;99.90;;;;;;4995951;28;20172;-68
2023/02/20 09:24:32;;;;;;;13.00;10.93;;;9.80;99.90;;;;;;4996189;28;20760;-68
2023/02/20 09:27:00;;;;;;;13.13;10.87;;;9.70;99.90;;;;;;4995917;28;20514;-68
2023/02/20 09:29:26;;;;;;;14.40;12.90;;;9.70;99.90;;;;;;4996165;28;20410;-68
2023/02/20 09:31:52;;;;;;;15.27;11.73;;;9.60;99.90;;;;;;4995502;28;20803;-69
2023/02/20 09:34:18;;;;;;;12.80;11.30;;;9.70;99.90;;;;;;4978699;28;20921;-69
2023/02/20 09:36:43;;;;;;;12.97;11.57;;;9.70;99.90;;;;;;4995281;28;20414;-68
2023/02/20 09:39:09;;;;;;;16.43;12.80;;;9.80;99.90;;;;;;4995915;28;20425;-69
2023/02/20 09:42:01;;;;;;;15.17;11.20;;;9.70;99.90;;;;;;4995569;28;20589;-68
2023/02/20 09:44:57;;;;;;;14.47;11.83;;;9.70;99.90;;;;;;4995939;28;20196;-68
2023/02/20 09:47:47;;;;;;;14.50;11.60;;;9.80;99.90;;;;;;4996096;28;20799;-68
2023/02/20 09:50:21;;;;;;;15.53;11.93;;;9.80;99.90;;;;;;4995757;28;20412;-68
2023/02/20 09:52:58;;;;;;;14.20;11.70;;;9.60;99.90;;;;;;4995134;28;20462;-68
2023/02/20 09:55:31;;;;;;;13.17;11.07;;;9.50;99.90;;;;;;4995754;28;20414;-68
2023/02/20 09:58:02;;;;;;;12.20;11.00;;;9.50;99.90;;;;;;4995002;28;20415;-68
2023/02/20 10:00:33;;;;;;;17.80;12.53;;;9.50;99.90;;;;;;4995648;28;20396;-69
2023/02/20 10:03:19;;;;;;;16.20;11.13;;;9.50;99.90;;;;;;4995218;28;20395;-69
2023/02/20 10:05:45;;;;;;;13.60;11.83;;;9.40;99.90;;;;;;4994988;28;20414;-68
2023/02/20 10:08:15;;;;;;;15.07;11.37;;;9.50;99.90;;;;;;4995464;28;20431;-68
2023/02/20 10:10:41;;;;;;;17.07;13.70;;;9.50;99.90;;;;;;4976956;28;20413;-68
2023/02/20 10:13:10;;;;;;;14.63;11.60;;;9.60;99.90;;;;;;4995357;28;20933;-68
2023/02/20 10:16:14;;;;;;;19.13;12.87;;;9.60;99.90;;;;;;4995333;28;20185;-68
2023/02/20 10:18:39;;;;;;;17.60;13.70;;;9.50;99.90;;;;;;4990236;28;20427;-68
2023/02/20 10:21:16;;;;;;;22.07;13.80;;;9.40;99.90;;;;;;4994627;28;20419;-69
2023/02/20 10:23:57;;;;;;;18.53;13.97;;;9.50;99.90;;;;;;4994564;28;20195;-68
2023/02/20 10:26:29;;;;;;;19.37;13.20;;;9.50;99.90;;;;;;4994146;28;20418;-68
2023/02/20 10:28:57;;;;;;;21.27;13.17;;;9.50;99.90;;;;;;4994486;28;20404;-68
2023/02/20 10:31:44;;;;;;;17.10;13.53;;;9.40;99.90;;;;;;4994909;28;20497;-68
2023/02/20 10:34:42;;;;;;;15.43;12.60;;;9.40;99.90;;;;;;4994998;28;20419;-68
2023/02/20 10:37:20;;;;;;;15.53;13.93;;;9.40;99.90;;;;;;4957269;28;20846;-68
2023/02/20 10:40:04;;;;;;;19.03;13.67;;;9.40;99.90;;;;;;4994106;28;20724;-69
2023/02/20 10:42:37;;;;;;;16.40;12.70;;;9.40;99.90;;;;;;4993683;28;20449;-68
2023/02/20 10:45:12;;;;;;;21.03;13.03;;;9.40;99.90;;;;;;4993943;28;21273;-68
2023/02/20 10:47:49;;;;;;;16.77;13.57;;;9.50;99.90;;;;;;4994891;28;20408;-68
2023/02/20 10:50:23;;;;;;;19.27;13.30;;;9.50;99.90;;;;;;4994917;28;20441;-69
2023/02/20 10:52:54;;;;;;;17.80;12.43;;;9.60;99.90;;;;;;4994185;28;20498;-69
2023/02/20 10:55:26;;;;;;;14.83;13.27;;;9.70;99.90;;;;;;4994561;28;20417;-68
2023/02/20 10:58:21;;;;;;;14.23;12.50;;;9.60;99.90;;;;;;4994036;28;20407;-68
2023/02/20 11:01:15;;;;;;;13.13;11.73;;;9.70;99.90;;;;;;4994037;28;20397;-69
2023/02/20 11:03:54;;;;;;;15.93;12.20;;;9.70;99.90;;;;;;4973788;28;20472;-68
2023/02/20 11:06:23;;;;;;;18.13;14.17;;;9.70;99.90;;;;;;4994957;28;20465;-68
2023/02/20 11:08:51;;;;;;;19.50;12.57;;;9.70;99.90;;;;;;4993744;28;20479;-68
2023/02/20 11:11:30;;;;;;;16.60;13.50;;;9.80;99.90;;;;;;4994109;28;20866;-68
2023/02/20 11:14:01;;;;;;;20.40;14.10;;;9.80;99.90;;;;;;4993756;28;20182;-69
2023/02/20 11:16:32;;;;;;;17.10;13.87;;;9.80;99.90;;;;;;4993580;28;20882;-68
2023/02/20 11:19:07;;;;;;;16.30;12.37;;;9.80;99.90;;;;;;4993068;28;20403;-69
2023/02/20 11:21:35;;;;;;;17.83;13.20;;;9.80;99.90;;;;;;4993675;28;20405;-68
2023/02/20 11:24:26;;;;;;;18.83;13.20;;;9.80;99.90;;;;;;4993119;28;20463;-69
2023/02/20 11:27:02;;;;;;;15.27;12.33;;;9.80;99.90;;;;;;4980108;28;20440;-68
2023/02/20 11:29:39;;;;;;;15.10;12.10;;;9.80;99.90;;;;;;4994087;28;20421;-68
2023/02/20 11:32:32;;;;;;;14.77;12.27;;;9.80;99.90;;;;;;4993360;28;20405;-68
2023/02/20 11:35:15;;;;;;;17.20;12.03;;;9.90;99.90;;;;;;4993238;28;20417;-69
2023/02/20 11:37:41;;;;;;;15.73;13.23;;;9.90;99.90;;;;;;4993646;28;20410;-68
2023/02/20 11:40:27;;;;;;;15.63;12.33;;;9.90;99.90;;;;;;4993116;28;20761;-69
2023/02/20 11:42:53;;;;;;;14.77;11.90;;;9.90;99.90;;;;;;4993115;28;20430;-68
2023/02/20 11:45:25;;;;;;;14.40;12.07;;;10.00;99.90;;;;;;4993419;28;20463;-69
2023/02/20 11:48:11;;;;;;;15.80;12.10;;;10.10;99.90;;;;;;4993020;28;20183;-69
2023/02/20 11:50:44;;;;;;;16.23;12.73;;;10.20;99.90;;;;;;4993713;28;20477;-68
2023/02/20 11:53:20;;;;;;;17.10;13.33;;;10.10;99.90;;;;;;4992885;28;20422;-68
2023/02/20 11:55:47;;;;;;;14.50;12.87;;;10.20;99.90;;;;;;4993410;28;20510;-68
2023/02/20 11:58:24;;;;;;;18.33;13.13;;;10.10;99.90;;;;;;4993463;28;20437;-68
2023/02/20 12:00:52;;;;;;;13.07;11.67;;;10.00;99.90;;;;;;4992876;28;20509;-69
2023/02/20 12:03:24;;;;;;;17.53;13.30;;;10.10;99.90;;;;;;4993361;28;20428;-69
2023/02/20 12:05:50;;;;;;;16.97;13.37;;;10.00;99.90;;;;;;4992827;28;20414;-69
2023/02/20 12:08:53;;;;;;;18.03;12.80;;;10.10;99.90;;;;;;4993316;28;20413;-68
2023/02/20 12:11:24;;;;;;;19.10;12.10;;;10.10;99.90;;;;;;4993218;28;20459;-68
2023/02/20 12:13:52;;;;;;;16.40;12.57;;;10.10;99.90;;;;;;4993077;28;20414;-68
2023/02/20 12:16:47;;;;;;;15.37;12.73;;;10.10;99.90;;;;;;4992010;28;20533;-68
2023/02/20 12:19:37;;;;;;;15.77;11.90;;;10.20;99.90;;;;;;4992671;28;20418;-69
2023/02/20 12:22:41;;;;;;;15.70;11.03;;;10.20;99.90;;;;;;4992543;28;20427;-69
2023/02/20 12:25:45;;;;;;;15.47;11.77;;;10.10;99.90;;;;;;4894558;29;20463;-69
2023/02/20 12:28:23;;;;;;;14.37;12.00;;;10.10;99.90;;;;;;4992636;28;20409;-68
2023/02/20 12:31:23;;;;;;;15.53;12.40;;;10.20;99.90;;;;;;4993464;28;20459;-69
2023/02/20 12:33:56;;;;;;;13.67;10.70;;;10.20;99.90;;;;;;4993181;28;20409;-68
2023/02/20 12:36:36;;;;;;;13.70;11.90;;;10.20;99.90;;;;;;4975862;28;20434;-68
2023/02/20 12:39:25;;;;;;;17.60;11.50;;;10.20;99.90;;;;;;4992484;28;20410;-69
2023/02/20 12:42:06;;;;;;;15.87;10.57;;;10.30;99.90;;;;;;4992512;28;20433;-69
2023/02/20 12:45:01;;;;;;;16.23;10.60;;;10.20;99.90;;;;;;4975489;28;20894;-68
2023/02/20 12:47:38;;;;;;;13.47;10.00;;;10.20;99.90;;;;;;4993225;28;20408;-69
2023/02/20 12:50:18;;;;;;;11.07;9.83;;;10.20;99.90;;;;;;4995226;28;20406;-69
2023/02/20 12:53:06;;;;;;;15.60;9.60;;;10.10;99.90;;;;;;4996917;28;20393;-68
2023/02/20 12:55:55;;;;;;;13.30;10.47;;;10.20;99.90;;;;;;4996899;28;20469;-68
2023/02/20 12:58:31;;;;;;;13.07;9.90;;;10.20;99.90;;;;;;4996517;28;20956;-69
2023/02/20 13:01:10;;;;;;;14.07;10.07;;;10.20;99.90;;;;;;4996109;28;20412;-69
2023/02/20 13:03:55;;;;;;;15.23;9.97;;;10.10;99.90;;;;;;4996678;28;20542;-69
2023/02/20 13:06:31;;;;;;;10.63;8.73;;;10.10;99.90;;;;;;4996611;28;20452;-69
2023/02/20 13:09:06;;;;;;;14.90;11.20;;;10.10;99.90;;;;;;4995989;28;20939;-69
2023/02/20 13:11:39;;;;;;;15.53;9.97;;;10.20;99.90;;;;;;4996096;28;20462;-68
2023/02/20 13:14:13;;;;;;;16.27;11.50;;;10.20;99.90;;;;;;4978446;28;20912;-69
2023/02/20 13:17:01;;;;;;;12.87;9.63;;;10.30;99.90;;;;;;4996249;28;20924;-69